createdAt,value
2022-11-19T00:01:58.462Z,0.85
2022-11-19T00:04:26.284Z,0.96
2022-11-19T00:06:54.178Z,0.94
2022-11-19T00:09:22.111Z,0.83
2022-11-19T00:12:06.387Z,0.91
2022-11-19T00:14:35.766Z,0.61
2022-11-19T00:17:03.557Z,0.92
2022-11-19T00:19:31.341Z,0.90
2022-11-19T00:21:59.244Z,0.63
2022-11-19T00:24:29.093Z,0.81
2022-11-19T00:26:57.133Z,0.86
2022-11-19T00:29:25.112Z,0.87
2022-11-19T00:31:54.304Z,0.86
2022-11-19T00:34:22.098Z,0.78
2022-11-19T00:36:50.924Z,0.84
2022-11-19T00:39:19.411Z,0.72
2022-11-19T00:41:47.412Z,0.80
2022-11-19T00:44:15.659Z,0.42
2022-11-19T00:46:43.472Z,0.80
2022-11-19T00:49:12.647Z,0.79
2022-11-19T00:51:40.600Z,0.73
2022-11-19T00:54:08.417Z,0.38
2022-11-19T00:56:36.231Z,0.78
2022-11-19T00:59:04.658Z,0.77
2022-11-19T01:01:32.587Z,0.02
2022-11-19T01:04:00.549Z,0.47
2022-11-19T01:06:29.918Z,0.76
2022-11-19T01:08:58.222Z,0.74
2022-11-19T01:11:28.805Z,0.75
2022-11-19T01:13:57.360Z,0.75
2022-11-19T01:16:27.256Z,0.73
2022-11-19T01:18:55.389Z,0.73
2022-11-19T01:21:27.680Z,0.73
2022-11-19T01:23:57.819Z,0.72
2022-11-19T01:26:26.810Z,0.73
2022-11-19T01:28:55.175Z,0.63
2022-11-19T01:31:25.643Z,0.31
2022-11-19T01:33:54.318Z,0.71
2022-11-19T01:36:24.259Z,0.72
2022-11-19T01:38:52.303Z,0.64
2022-11-19T01:41:23.402Z,0.71
2022-11-19T01:43:52.912Z,0.70
2022-11-19T01:46:22.415Z,0.69
2022-11-19T01:48:55.107Z,0.68
2022-11-19T01:51:26.139Z,0.68
2022-11-19T01:53:58.631Z,0.54
2022-11-19T01:56:29.356Z,0.47
2022-11-19T01:59:01.447Z,0.65
2022-11-19T02:01:30.321Z,0.65
2022-11-19T02:04:00.968Z,0.63
2022-11-19T02:06:29.760Z,0.64
2022-11-19T02:08:58.118Z,0.65
2022-11-19T02:11:47.191Z,0.67
2022-11-19T02:14:38.205Z,0.64
2022-11-19T02:17:17.413Z,0.65
2022-11-19T02:20:25.824Z,0.56
2022-11-19T02:23:47.352Z,0.64
2022-11-19T02:26:53.908Z,0.61
2022-11-19T02:29:50.803Z,0.60
2022-11-19T02:32:28.476Z,0.55
2022-11-19T02:34:59.622Z,0.58
2022-11-19T02:37:30.940Z,0.58
2022-11-19T02:40:06.604Z,0.58
2022-11-19T02:42:38.797Z,0.58
2022-11-19T02:45:11.550Z,0.49
2022-11-19T02:47:43.000Z,0.55
2022-11-19T02:50:16.254Z,0.54
2022-11-19T02:52:47.996Z,0.13
2022-11-19T02:55:18.602Z,0.27
2022-11-19T02:57:51.602Z,0.55
2022-11-19T03:00:37.886Z,0.56
2022-11-19T03:03:29.544Z,0.56
2022-11-19T03:06:03.307Z,0.41
2022-11-19T03:08:31.199Z,0.54
2022-11-19T03:11:08.752Z,0.54
2022-11-19T03:14:06.483Z,0.17
2022-11-19T03:16:44.048Z,0.53
2022-11-19T03:19:25.723Z,0.54
2022-11-19T03:21:57.832Z,0.53
2022-11-19T03:24:31.978Z,0.54
2022-11-19T03:27:05.169Z,0.52
2022-11-19T03:29:40.043Z,0.53
2022-11-19T03:32:14.291Z,0.55
2022-11-19T03:34:46.912Z,0.53
2022-11-19T03:37:17.405Z,-0.57
2022-11-19T03:39:48.829Z,0.55
2022-11-19T03:42:20.177Z,0.57
2022-11-19T03:44:51.839Z,0.56
2022-11-19T03:47:23.917Z,0.57
2022-11-19T03:49:58.991Z,0.39
2022-11-19T03:52:27.029Z,0.57
2022-11-19T03:54:54.864Z,0.57
2022-11-19T03:57:26.215Z,0.57
2022-11-19T03:59:54.158Z,0.58
2022-11-19T04:02:22.383Z,0.56
2022-11-19T04:04:50.228Z,0.57
2022-11-19T04:07:22.018Z,0.57
2022-11-19T04:09:50.249Z,0.59
2022-11-19T04:12:20.313Z,0.58
2022-11-19T04:14:48.550Z,0.57
2022-11-19T04:17:17.381Z,0.58
2022-11-19T04:19:45.562Z,0.59
2022-11-19T04:22:13.578Z,0.60
2022-11-19T04:24:42.854Z,0.61
2022-11-19T04:27:10.798Z,0.60
2022-11-19T04:29:38.794Z,0.62
2022-11-19T04:32:07.068Z,0.38
2022-11-19T04:34:34.920Z,0.64
2022-11-19T04:37:02.781Z,0.64
2022-11-19T04:39:30.605Z,0.42
2022-11-19T04:41:59.946Z,0.63
2022-11-19T04:44:27.912Z,0.62
2022-11-19T04:46:55.743Z,0.63
2022-11-19T04:49:23.734Z,0.64
2022-11-19T04:51:51.641Z,0.56
2022-11-19T04:54:19.477Z,0.63
2022-11-19T04:56:47.416Z,0.64
2022-11-19T04:59:16.933Z,0.52
2022-11-19T05:01:44.923Z,0.63
2022-11-19T05:04:14.571Z,0.63
2022-11-19T05:06:42.578Z,0.64
2022-11-19T05:09:10.464Z,0.65
2022-11-19T05:11:38.410Z,0.66
2022-11-19T05:14:06.489Z,0.57
2022-11-19T05:16:35.683Z,0.65
2022-11-19T05:19:03.834Z,0.64
2022-11-19T05:21:31.719Z,0.64
2022-11-19T05:23:59.531Z,0.63
2022-11-19T05:26:27.430Z,0.63
2022-11-19T05:28:55.368Z,0.62
2022-11-19T05:31:23.160Z,0.60
2022-11-19T05:33:52.413Z,0.61
2022-11-19T05:36:20.308Z,0.61
2022-11-19T05:38:48.096Z,0.61
2022-11-19T05:41:16.012Z,0.49
2022-11-19T05:43:43.886Z,0.60
2022-11-19T05:46:11.699Z,0.59
2022-11-19T05:48:39.692Z,0.47
2022-11-19T05:51:08.911Z,0.55
2022-11-19T05:53:36.724Z,0.54
2022-11-19T05:56:04.832Z,0.43
2022-11-19T05:58:32.757Z,0.49
2022-11-19T06:01:00.751Z,0.49
2022-11-19T06:03:28.659Z,0.46
2022-11-19T06:05:56.553Z,0.49
2022-11-19T06:08:25.778Z,0.48
2022-11-19T06:10:53.580Z,0.36
2022-11-19T06:13:21.849Z,0.45
2022-11-19T06:15:49.956Z,0.22
2022-11-19T06:18:17.955Z,0.45
2022-11-19T06:20:45.919Z,0.45
2022-11-19T06:23:13.724Z,0.42
2022-11-19T06:25:42.996Z,0.42
2022-11-19T06:28:10.892Z,0.42
2022-11-19T06:30:38.702Z,0.40
2022-11-19T06:33:06.830Z,0.07
2022-11-19T06:35:35.005Z,0.40
2022-11-19T06:38:02.814Z,0.39
2022-11-19T06:40:30.743Z,0.38
2022-11-19T06:42:59.971Z,0.38
2022-11-19T06:45:27.912Z,0.39
2022-11-19T06:47:55.853Z,0.40
2022-11-19T06:50:23.694Z,0.40
2022-11-19T06:52:51.506Z,0.42
2022-11-19T06:55:19.800Z,0.41
2022-11-19T06:57:47.773Z,0.26
2022-11-19T07:00:18.163Z,0.38
2022-11-19T07:02:46.036Z,0.28
2022-11-19T07:05:14.203Z,0.35
2022-11-19T07:07:42.055Z,0.24
2022-11-19T07:10:11.247Z,0.35
2022-11-19T07:12:39.329Z,0.35
2022-11-19T07:15:07.704Z,0.33
2022-11-19T07:17:37.872Z,0.13
2022-11-19T07:20:07.051Z,0.32
2022-11-19T07:22:34.941Z,0.32
2022-11-19T07:25:02.870Z,0.26
2022-11-19T07:27:30.795Z,0.28
2022-11-19T07:29:58.606Z,0.28
2022-11-19T07:32:27.134Z,0.28
2022-11-19T07:34:56.453Z,-0.36
2022-11-19T07:37:24.548Z,0.27
2022-11-19T07:39:52.504Z,0.28
2022-11-19T07:42:37.697Z,0.28
2022-11-19T07:45:07.150Z,0.18
2022-11-19T07:47:35.204Z,0.24
2022-11-19T07:50:05.791Z,0.26
2022-11-19T07:52:33.744Z,0.21
2022-11-19T07:55:01.722Z,0.26
2022-11-19T07:57:30.576Z,0.19
2022-11-19T07:59:58.954Z,0.26
2022-11-19T08:02:26.807Z,0.25
2022-11-19T08:04:54.632Z,0.26
2022-11-19T08:07:23.970Z,0.27
2022-11-19T08:09:51.802Z,0.03
2022-11-19T08:12:19.829Z,0.28
2022-11-19T08:14:47.759Z,0.28
2022-11-19T08:17:32.923Z,0.29
2022-11-19T08:20:00.847Z,0.29
2022-11-19T08:22:30.316Z,0.30
2022-11-19T08:24:58.416Z,0.33
2022-11-19T08:27:26.441Z,0.33
2022-11-19T08:29:54.228Z,0.32
2022-11-19T08:32:22.494Z,0.21
2022-11-19T08:34:50.532Z,0.33
2022-11-19T08:37:18.365Z,0.33
2022-11-19T08:39:47.651Z,0.32
2022-11-19T08:42:33.144Z,0.33
2022-11-19T08:45:01.209Z,0.36
2022-11-19T08:47:29.098Z,0.36
2022-11-19T08:49:57.741Z,0.37
2022-11-19T08:52:25.661Z,0.39
2022-11-19T08:54:55.077Z,0.41
2022-11-19T08:57:22.917Z,0.42
2022-11-19T08:59:52.291Z,0.38
2022-11-19T09:02:20.185Z,0.43
2022-11-19T09:04:48.017Z,0.46
2022-11-19T09:07:16.070Z,0.50
2022-11-19T09:09:44.064Z,0.52
2022-11-19T09:12:13.239Z,0.52
2022-11-19T09:14:41.181Z,0.54
2022-11-19T09:17:09.053Z,0.55
2022-11-19T09:19:36.856Z,0.47
2022-11-19T09:22:04.756Z,0.55
2022-11-19T09:24:32.646Z,0.50
2022-11-19T09:27:02.376Z,0.58
2022-11-19T09:29:31.923Z,0.61
2022-11-19T09:31:59.929Z,0.63
2022-11-19T09:34:27.771Z,0.65
2022-11-19T09:36:55.659Z,0.67
2022-11-19T09:39:23.556Z,0.68
2022-11-19T09:41:56.977Z,0.67
2022-11-19T09:44:42.929Z,0.64
2022-11-19T09:47:27.266Z,0.62
2022-11-19T09:50:04.697Z,0.65
2022-11-19T09:52:34.523Z,0.70
2022-11-19T09:55:03.583Z,0.74
2022-11-19T09:57:37.495Z,0.74
2022-11-19T10:00:10.164Z,0.81
2022-11-19T10:02:38.217Z,0.80
2022-11-19T10:05:11.071Z,0.77
2022-11-19T10:07:51.726Z,0.73
2022-11-19T10:10:33.983Z,0.74
2022-11-19T10:13:28.401Z,0.71
2022-11-19T10:16:07.178Z,0.73
2022-11-19T10:18:45.113Z,0.72
2022-11-19T10:21:19.578Z,0.69
2022-11-19T10:23:55.317Z,0.68
2022-11-19T10:26:33.397Z,0.59
2022-11-19T10:29:03.246Z,0.64
2022-11-19T10:31:38.061Z,0.63
2022-11-19T10:34:12.885Z,0.63
2022-11-19T10:36:44.426Z,0.66
2022-11-19T10:39:21.868Z,0.70
2022-11-19T10:41:56.480Z,0.73
2022-11-19T10:44:38.384Z,0.74
2022-11-19T10:47:10.456Z,0.57
2022-11-19T10:49:41.172Z,0.72
2022-11-19T10:52:26.477Z,0.75
2022-11-19T10:54:57.957Z,0.72
2022-11-19T10:57:27.002Z,0.74
2022-11-19T10:59:55.878Z,0.70
2022-11-19T11:02:33.009Z,0.74
2022-11-19T11:05:07.810Z,0.73
2022-11-19T11:07:51.410Z,0.74
2022-11-19T11:10:35.109Z,0.78
2022-11-19T11:13:48.155Z,0.57
2022-11-19T11:16:19.587Z,0.87
2022-11-19T11:18:49.995Z,0.88
2022-11-19T11:21:34.648Z,0.89
2022-11-19T11:24:04.692Z,0.89
2022-11-19T11:26:35.040Z,0.89
2022-11-19T11:29:05.391Z,0.81
2022-11-19T11:31:39.444Z,0.83
2022-11-19T11:34:15.864Z,0.85
2022-11-19T11:36:45.383Z,0.83
2022-11-19T11:39:27.496Z,0.82
2022-11-19T11:42:16.086Z,0.80
2022-11-19T11:44:52.276Z,0.82
2022-11-19T11:47:24.044Z,0.75
2022-11-19T11:50:04.948Z,0.74
2022-11-19T11:52:37.171Z,0.82
2022-11-19T11:55:07.443Z,0.80
2022-11-19T11:57:36.775Z,0.79
2022-11-19T12:00:36.209Z,0.78
2022-11-19T12:03:07.161Z,0.76
2022-11-19T12:05:50.382Z,0.72
2022-11-19T12:08:44.160Z,0.67
2022-11-19T12:11:21.668Z,0.61
2022-11-19T12:13:57.839Z,0.52
2022-11-19T12:16:49.156Z,0.56
2022-11-19T12:19:28.599Z,0.57
2022-11-19T12:22:07.973Z,0.54
2022-11-19T12:24:50.660Z,0.47
2022-11-19T12:27:28.350Z,0.35
2022-11-19T12:30:06.147Z,0.32
2022-11-19T12:33:01.171Z,0.08
2022-11-19T12:35:44.792Z,0.18
2022-11-19T12:38:36.441Z,0.13
2022-11-19T12:41:27.744Z,0.10
2022-11-19T12:43:59.112Z,0.03
2022-11-19T12:46:42.908Z,0.01
2022-11-19T12:49:26.536Z,-0.17
2022-11-19T12:52:04.408Z,-0.06
2022-11-19T12:54:47.209Z,-0.06
2022-11-19T12:57:34.609Z,-0.05
2022-11-19T13:00:12.238Z,-0.04
2022-11-19T13:02:49.687Z,-0.03
2022-11-19T13:05:20.879Z,-0.03
2022-11-19T13:07:55.453Z,-0.12
2022-11-19T13:10:27.320Z,-0.01
2022-11-19T13:12:59.364Z,-0.01
2022-11-19T13:15:31.548Z,0.01
2022-11-19T13:18:04.076Z,0.01
2022-11-19T13:20:42.834Z,-1.32
2022-11-19T13:23:17.357Z,-0.02
2022-11-19T13:25:49.885Z,-0.02
2022-11-19T13:28:23.648Z,-0.02
2022-11-19T13:30:54.490Z,-0.12
2022-11-19T13:33:27.550Z,-0.01
2022-11-19T13:36:03.656Z,-0.04
2022-11-19T13:38:43.805Z,-0.03
2022-11-19T13:41:17.586Z,-0.17
2022-11-19T13:44:03.461Z,-0.01
2022-11-19T13:46:36.794Z,-0.76
2022-11-19T13:49:08.647Z,0.00
2022-11-19T13:51:40.777Z,-0.05
2022-11-19T13:54:10.076Z,-0.06
2022-11-19T13:56:46.883Z,0.03
2022-11-19T13:59:40.561Z,0.05
2022-11-19T14:02:57.483Z,0.09
2022-11-19T14:05:52.825Z,0.13
2022-11-19T14:08:52.674Z,-0.59
2022-11-19T14:11:34.449Z,0.17
2022-11-19T14:14:40.107Z,0.19
2022-11-19T14:17:35.792Z,0.22
2022-11-19T14:20:21.435Z,0.24
2022-11-19T14:23:14.220Z,0.26
2022-11-19T14:26:02.235Z,0.29
2022-11-19T14:28:48.537Z,0.33
2022-11-19T14:31:19.539Z,0.31
2022-11-19T14:34:04.387Z,0.38
2022-11-19T14:36:47.647Z,0.36
2022-11-19T14:39:24.848Z,0.41
2022-11-19T14:42:14.715Z,0.39
2022-11-19T14:44:43.478Z,0.41
2022-11-19T14:47:35.065Z,0.47
2022-11-19T14:50:06.351Z,0.47
2022-11-19T14:52:36.593Z,0.45
2022-11-19T14:55:07.764Z,0.52
2022-11-19T14:57:38.796Z,0.53
2022-11-19T15:00:26.382Z,0.55
2022-11-19T15:02:57.109Z,0.51
2022-11-19T15:05:31.672Z,0.57
2022-11-19T15:08:31.017Z,0.58
2022-11-19T15:11:07.455Z,0.60
2022-11-19T15:13:36.411Z,-0.11
2022-11-19T15:16:10.268Z,0.59
2022-11-19T15:19:12.771Z,0.59
2022-11-19T15:22:13.380Z,0.58
2022-11-19T15:24:58.999Z,0.56
2022-11-19T15:27:40.631Z,0.58
2022-11-19T15:30:16.229Z,0.56
2022-11-19T15:33:03.449Z,0.54
2022-11-19T15:36:02.457Z,0.52
2022-11-19T15:38:36.944Z,0.52
2022-11-19T15:41:07.147Z,0.50
2022-11-19T15:43:41.485Z,0.36
2022-11-19T15:46:13.665Z,0.46
2022-11-19T15:48:55.875Z,0.45
2022-11-19T15:51:25.553Z,0.38
2022-11-19T15:54:01.795Z,0.44
2022-11-19T15:56:33.029Z,0.45
2022-11-19T15:59:05.588Z,0.43
2022-11-19T16:01:34.490Z,0.42
2022-11-19T16:04:07.697Z,0.27
2022-11-19T16:06:40.150Z,0.40
2022-11-19T16:09:08.842Z,0.40
2022-11-19T16:11:56.470Z,0.40
2022-11-19T16:14:44.041Z,0.38
2022-11-19T16:17:31.301Z,0.30
2022-11-19T16:20:06.955Z,0.42
2022-11-19T16:22:40.451Z,0.39
2022-11-19T16:25:13.004Z,0.28
2022-11-19T16:27:43.288Z,0.29
2022-11-19T16:30:19.759Z,0.26
2022-11-19T16:32:48.730Z,0.27
2022-11-19T16:35:24.622Z,0.27
2022-11-19T16:37:55.863Z,0.30
2022-11-19T16:40:24.640Z,0.30
2022-11-19T16:42:55.058Z,0.29
2022-11-19T16:45:25.588Z,0.30
2022-11-19T16:47:55.660Z,0.04
2022-11-19T16:50:32.814Z,0.30
2022-11-19T16:53:03.410Z,0.19
2022-11-19T16:55:43.948Z,0.31
2022-11-19T16:58:17.416Z,0.37
2022-11-19T17:00:49.484Z,0.26
2022-11-19T17:03:24.587Z,0.38
2022-11-19T17:05:54.584Z,0.37
2022-11-19T17:08:25.830Z,0.31
2022-11-19T17:11:36.140Z,0.36
2022-11-19T17:14:24.338Z,0.31
2022-11-19T17:16:54.230Z,0.29
2022-11-19T17:19:26.896Z,0.29
2022-11-19T17:21:59.071Z,0.19
2022-11-19T17:24:32.806Z,0.30
2022-11-19T17:27:01.288Z,0.29
2022-11-19T17:29:29.331Z,0.27
2022-11-19T17:31:58.176Z,0.28
2022-11-19T17:34:33.316Z,0.28
2022-11-19T17:37:01.601Z,0.23
2022-11-19T17:39:30.871Z,0.29
2022-11-19T17:42:16.630Z,0.30
2022-11-19T17:44:44.837Z,0.32
2022-11-19T17:47:22.190Z,0.31
2022-11-19T17:49:51.216Z,0.32
2022-11-19T17:52:24.069Z,0.16
2022-11-19T17:54:56.923Z,0.35
2022-11-19T17:57:25.101Z,0.34
2022-11-19T17:59:53.356Z,0.39
2022-11-19T18:02:22.468Z,0.31
2022-11-19T18:04:50.555Z,0.42
2022-11-19T18:07:18.549Z,0.42
2022-11-19T18:09:46.705Z,0.45
2022-11-19T18:12:17.976Z,0.48
2022-11-19T18:14:46.681Z,0.45
2022-11-19T18:17:16.346Z,0.49
2022-11-19T18:19:44.201Z,0.50
2022-11-19T18:22:18.317Z,0.51
2022-11-19T18:24:47.871Z,0.52
2022-11-19T18:27:17.429Z,0.44
2022-11-19T18:29:45.418Z,0.52
2022-11-19T18:32:15.972Z,0.52
2022-11-19T18:34:44.401Z,0.51
2022-11-19T18:37:12.891Z,0.09
2022-11-19T18:39:40.687Z,0.50
2022-11-19T18:42:11.104Z,0.48
2022-11-19T18:44:41.779Z,0.48
2022-11-19T18:47:11.087Z,0.48
2022-11-19T18:49:39.292Z,0.49
2022-11-19T18:52:09.299Z,0.51
2022-11-19T18:54:37.228Z,0.52
2022-11-19T18:57:05.407Z,0.38
2022-11-19T18:59:33.465Z,0.54
2022-11-19T19:02:02.811Z,0.53
2022-11-19T19:04:30.708Z,0.56
2022-11-19T19:06:59.467Z,0.57
2022-11-19T19:09:27.498Z,0.58
2022-11-19T19:12:14.135Z,0.54
2022-11-19T19:14:42.438Z,0.60
2022-11-19T19:17:11.990Z,0.27
2022-11-19T19:19:40.332Z,0.60
2022-11-19T19:22:08.825Z,0.36
2022-11-19T19:24:36.770Z,0.60
2022-11-19T19:27:05.588Z,0.61
2022-11-19T19:29:33.621Z,0.62
2022-11-19T19:32:01.813Z,0.52
2022-11-19T19:34:31.594Z,0.63
2022-11-19T19:36:59.519Z,0.64
2022-11-19T19:39:27.325Z,0.65
2022-11-19T19:41:55.469Z,0.65
2022-11-19T19:44:23.421Z,0.60
2022-11-19T19:46:51.204Z,0.65
2022-11-19T19:49:19.839Z,0.54
2022-11-19T19:51:49.685Z,0.63
2022-11-19T19:54:17.621Z,0.60
2022-11-19T19:56:45.754Z,0.58
2022-11-19T19:59:14.728Z,0.31
2022-11-19T20:01:47.667Z,0.53
2022-11-19T20:04:15.704Z,0.11
2022-11-19T20:06:46.977Z,0.46
2022-11-19T20:09:16.497Z,0.52
2022-11-19T20:11:44.463Z,0.53
2022-11-19T20:14:12.488Z,0.54
2022-11-19T20:16:41.863Z,0.48
2022-11-19T20:19:13.134Z,0.54
2022-11-19T20:21:41.188Z,0.55
2022-11-19T20:24:12.811Z,0.43
2022-11-19T20:26:43.346Z,0.52
2022-11-19T20:29:12.670Z,0.49
2022-11-19T20:31:41.166Z,0.55
2022-11-19T20:34:09.084Z,0.55
2022-11-19T20:36:37.327Z,0.57
2022-11-19T20:39:06.550Z,0.58
2022-11-19T20:41:52.242Z,0.59
2022-11-19T20:44:22.775Z,0.30
2022-11-19T20:46:52.772Z,0.61
2022-11-19T20:49:22.727Z,0.61
2022-11-19T20:51:51.450Z,0.61
2022-11-19T20:54:20.064Z,0.57
2022-11-19T20:56:49.224Z,0.55
2022-11-19T20:59:17.503Z,0.55
2022-11-19T21:01:48.539Z,0.55
2022-11-19T21:04:16.695Z,0.54
2022-11-19T21:06:44.529Z,0.53
2022-11-19T21:09:12.448Z,0.49
2022-11-19T21:11:40.413Z,0.53
2022-11-19T21:14:08.568Z,0.54
2022-11-19T21:16:36.803Z,0.55
2022-11-19T21:19:06.286Z,0.54
2022-11-19T21:21:34.679Z,0.54
2022-11-19T21:24:02.669Z,0.54
2022-11-19T21:26:30.912Z,0.52
2022-11-19T21:29:00.032Z,0.51
2022-11-19T21:31:38.825Z,0.50
2022-11-19T21:34:10.236Z,0.50
2022-11-19T21:36:38.926Z,0.41
2022-11-19T21:39:08.239Z,0.47
2022-11-19T21:41:36.411Z,0.47
2022-11-19T21:44:05.625Z,0.46
2022-11-19T21:46:33.957Z,0.36
2022-11-19T21:49:01.994Z,0.41
2022-11-19T21:51:31.501Z,0.40
2022-11-19T21:53:59.918Z,0.42
2022-11-19T21:56:32.494Z,0.41
2022-11-19T21:59:05.280Z,0.40
2022-11-19T22:01:33.089Z,0.38
2022-11-19T22:04:00.925Z,0.38
2022-11-19T22:06:29.062Z,0.36
2022-11-19T22:08:58.295Z,0.35
2022-11-19T22:11:32.534Z,0.33
2022-11-19T22:14:02.660Z,0.31
2022-11-19T22:16:31.484Z,0.30
2022-11-19T22:18:59.478Z,0.28
2022-11-19T22:21:29.109Z,0.27
2022-11-19T22:23:58.868Z,0.16
2022-11-19T22:26:27.001Z,0.25
2022-11-19T22:28:55.040Z,0.23
2022-11-19T22:31:23.137Z,0.22
2022-11-19T22:33:52.372Z,0.23
2022-11-19T22:36:22.032Z,0.23
2022-11-19T22:38:50.200Z,0.24
2022-11-19T22:41:21.022Z,0.25
2022-11-19T22:43:49.344Z,0.26
2022-11-19T22:46:17.429Z,0.26
2022-11-19T22:48:45.498Z,0.25
2022-11-19T22:51:15.661Z,0.28
2022-11-19T22:53:44.354Z,0.29
2022-11-19T22:56:14.437Z,0.29
2022-11-19T22:58:44.066Z,0.30
2022-11-19T23:01:18.051Z,0.31
2022-11-19T23:03:46.490Z,0.33
2022-11-19T23:06:14.823Z,-0.05
2022-11-19T23:08:43.012Z,0.33
2022-11-19T23:11:11.793Z,0.37
2022-11-19T23:13:41.601Z,0.38
2022-11-19T23:16:12.232Z,0.39
2022-11-19T23:18:41.662Z,0.31
2022-11-19T23:21:11.727Z,0.41
2022-11-19T23:23:39.783Z,0.43
2022-11-19T23:26:09.356Z,0.35
2022-11-19T23:28:38.464Z,0.43
2022-11-19T23:31:07.884Z,0.44
2022-11-19T23:33:37.687Z,0.45
2022-11-19T23:36:09.161Z,0.46
2022-11-19T23:38:37.375Z,0.47
2022-11-19T23:41:06.697Z,0.45
2022-11-19T23:43:35.653Z,0.43
2022-11-19T23:46:09.131Z,0.46
2022-11-19T23:48:39.763Z,0.40
2022-11-19T23:51:11.638Z,0.43
2022-11-19T23:53:40.227Z,0.15
2022-11-19T23:56:09.425Z,0.41
2022-11-19T23:58:38.103Z,0.39
